Time;durP1;ratioP1;P1;durP2;ratioP2;P2;SDS_P1;SDS_P2;PMS_P1;PMS_P2;Temp;Humidity;BMP_temperature;BMP_pressure;BME280_temperature;BME280_humidity;BME280_pressure;Samples;Min_cycle;Max_cycle;Signal;HPM_P1;HPM_P2
2022/07/05 00:00:40;;;;;;;7.35;2.67;;;;;;;23.77;53.59;100518.66;2110949;28;20082;-73
2022/07/05 00:02:03;;;;;;;6.55;2.35;;;;;;;23.73;53.57;100520.63;2105417;28;20056;-73
2022/07/05 00:03:24;;;;;;;5.07;1.70;;;;;;;23.72;53.66;100517.97;2110914;28;20047;-73
2022/07/05 00:04:50;;;;;;;9.02;2.38;;;;;;;23.70;53.64;100514.47;2107189;28;20040;-74
2022/07/05 00:06:11;;;;;;;8.70;2.53;;;;;;;23.68;53.71;100514.56;2105447;28;20139;-73
2022/07/05 00:07:34;;;;;;;8.35;2.15;;;;;;;23.66;53.89;100505.63;2111760;28;20050;-73
2022/07/05 00:08:56;;;;;;;5.45;1.80;;;;;;;23.62;53.99;100509.41;2097055;28;20048;-73
2022/07/05 00:10:18;;;;;;;9.57;2.17;;;;;;;23.59;54.01;100506.84;2100151;28;20143;-73
2022/07/05 00:11:41;;;;;;;6.28;2.33;;;;;;;23.56;54.17;100498.91;2102354;28;20040;-73
2022/07/05 00:13:04;;;;;;;6.55;1.80;;;;;;;23.54;54.15;100508.84;2094324;28;20082;-74
2022/07/05 00:14:27;;;;;;;4.60;1.75;;;;;;;23.48;54.37;100498.34;2099271;28;20056;-73
2022/07/05 00:15:48;;;;;;;12.68;2.30;;;;;;;23.43;54.45;100497.63;2102441;28;20476;-73
2022/07/05 00:17:11;;;;;;;9.23;1.98;;;;;;;23.40;54.42;100503.13;2102605;28;20113;-73
2022/07/05 00:18:34;;;;;;;8.98;2.63;;;;;;;23.34;54.53;100495.28;2101946;28;20469;-73
2022/07/05 00:19:57;;;;;;;9.15;2.40;;;;;;;23.28;54.71;100500.94;2101033;28;20059;-73
2022/07/05 00:21:19;;;;;;;6.80;2.03;;;;;;;23.24;54.82;100504.69;2099619;28;20077;-73
2022/07/05 00:22:41;;;;;;;5.30;2.20;;;;;;;23.15;54.88;100494.28;2091432;28;20056;-74
2022/07/05 00:24:04;;;;;;;5.68;2.10;;;;;;;23.11;54.91;100496.22;2099431;28;20140;-73
2022/07/05 00:25:26;;;;;;;11.00;2.50;;;;;;;23.05;55.03;100493.78;2102026;28;20138;-73
2022/07/05 00:26:48;;;;;;;6.68;2.15;;;;;;;22.92;55.22;100492.50;2094015;28;20072;-73
2022/07/05 00:28:10;;;;;;;9.93;2.03;;;;;;;22.82;55.39;100500.09;2099230;28;20139;-73
2022/07/05 00:29:33;;;;;;;5.10;1.67;;;;;;;22.78;55.46;100501.13;2094230;28;20429;-73
2022/07/05 00:30:55;;;;;;;5.78;1.75;;;;;;;22.78;55.36;100506.50;2094172;28;20052;-73
2022/07/05 00:32:17;;;;;;;4.57;1.63;;;;;;;22.79;55.37;100497.50;2093705;28;20612;-73
2022/07/05 00:33:39;;;;;;;4.35;1.80;;;;;;;22.80;55.36;100501.06;2091293;28;20288;-73
2022/07/05 00:35:04;;;;;;;5.65;2.22;;;;;;;22.73;55.46;100505.81;2110352;28;20070;-74
2022/07/05 00:36:27;;;;;;;5.82;2.22;;;;;;;22.71;55.53;100504.94;2095098;28;20055;-73
2022/07/05 00:37:49;;;;;;;4.82;1.85;;;;;;;22.75;55.56;100511.16;2091579;28;20076;-74
2022/07/05 00:39:12;;;;;;;10.23;2.28;;;;;;;22.73;55.46;100508.50;2099563;28;20052;-73
2022/07/05 00:40:34;;;;;;;5.32;1.83;;;;;;;22.64;55.54;100504.31;2102605;28;20040;-73
2022/07/05 00:41:57;;;;;;;6.75;1.60;;;;;;;22.55;55.61;100503.78;2101701;28;20048;-74
2022/07/05 00:43:19;;;;;;;6.32;2.40;;;;;;;22.49;55.82;100507.59;2096587;28;20036;-73
2022/07/05 00:44:41;;;;;;;10.27;2.15;;;;;;;22.51;55.71;100502.16;2099276;28;20040;-73
2022/07/05 00:46:04;;;;;;;5.78;1.92;;;;;;;22.53;55.73;100506.53;2102465;28;20144;-73
2022/07/05 00:47:25;;;;;;;8.77;2.03;;;;;;;22.56;55.76;100513.63;2102320;28;20052;-73
2022/07/05 00:48:48;;;;;;;8.15;2.20;;;;;;;22.58;55.82;100506.34;2096729;28;20048;-73
2022/07/05 00:50:12;;;;;;;5.60;1.92;;;;;;;22.63;55.72;100502.56;2104674;28;20071;-73
2022/07/05 00:51:37;;;;;;;8.88;2.03;;;;;;;22.67;55.72;100501.50;2110835;28;20051;-73
2022/07/05 00:53:00;;;;;;;10.63;2.33;;;;;;;22.68;55.56;100499.69;2107014;28;20087;-73
2022/07/05 00:54:22;;;;;;;8.00;2.38;;;;;;;22.69;55.61;100504.16;2096799;28;20052;-73
2022/07/05 00:55:46;;;;;;;7.22;2.10;;;;;;;22.71;55.66;100510.31;2095703;28;20058;-73
2022/07/05 00:57:08;;;;;;;7.13;2.20;;;;;;;22.69;55.70;100503.28;2094182;28;20755;-73
2022/07/05 00:58:33;;;;;;;8.77;2.13;;;;;;;22.70;55.55;100508.59;2101608;28;20052;-73
2022/07/05 00:59:54;;;;;;;8.95;2.40;;;;;;;22.75;55.46;100505.75;2101858;28;20163;-73
2022/07/05 01:01:17;;;;;;;8.15;2.78;;;;;;;22.78;55.32;100501.13;2102367;28;20063;-73
2022/07/05 01:02:40;;;;;;;6.25;1.98;;;;;;;22.78;55.25;100506.50;2104994;28;20105;-73
2022/07/05 01:04:01;;;;;;;6.93;2.05;;;;;;;22.79;55.26;100502.00;2102473;28;20079;-73
2022/07/05 01:05:26;;;;;;;6.00;1.73;;;;;;;22.84;55.07;100500.03;2102176;28;20916;-73
2022/07/05 01:06:49;;;;;;;7.90;2.30;;;;;;;22.87;54.99;100506.16;2102180;28;20401;-73
2022/07/05 01:08:14;;;;;;;8.50;2.58;;;;;;;22.88;54.86;100505.22;2096342;28;20059;-73
2022/07/05 01:09:35;;;;;;;11.80;2.05;;;;;;;22.88;54.90;100513.31;2100228;28;20052;-72
2022/07/05 01:10:58;;;;;;;8.50;1.85;;;;;;;22.89;54.83;100507.00;2102018;28;20036;-73
2022/07/05 01:12:20;;;;;;;9.32;2.00;;;;;;;22.91;54.75;100510.47;2104843;28;20036;-73
2022/07/05 01:13:42;;;;;;;8.75;2.30;;;;;;;22.92;54.79;100505.97;2102767;28;20046;-73
2022/07/05 01:15:06;;;;;;;6.85;1.63;;;;;;;22.94;54.74;100507.69;2101709;28;20040;-73
2022/07/05 01:16:27;;;;;;;14.98;2.10;;;;;;;22.96;54.66;100504.94;2110650;28;20472;-73
2022/07/05 01:17:50;;;;;;;7.30;1.92;;;;;;;22.95;54.58;100506.75;2104525;28;20402;-73
2022/07/05 01:19:12;;;;;;;8.00;2.25;;;;;;;22.97;54.64;100515.63;2104830;28;20076;-73
2022/07/05 01:20:37;;;;;;;6.45;1.77;;;;;;;23.01;54.61;100505.63;2096651;28;20494;-73
2022/07/05 01:22:03;;;;;;;7.40;1.67;;;;;;;23.02;54.50;100513.66;2098605;28;20052;-73
2022/07/05 01:23:28;;;;;;;6.43;1.73;;;;;;;23.00;54.54;100509.25;2100341;28;20044;-73
2022/07/05 01:24:52;;;;;;;4.05;1.48;;;;;;;22.94;54.74;100518.44;2099704;28;20054;-73
2022/07/05 01:26:15;;;;;;;7.38;1.92;;;;;;;22.95;54.80;100512.13;2103909;28;20062;-73
2022/07/05 01:27:38;;;;;;;4.97;1.80;;;;;;;22.99;54.88;100510.19;2093753;28;20666;-73
2022/07/05 01:29:00;;;;;;;4.93;1.80;;;;;;;23.02;54.82;100513.66;2099713;28;20417;-73
2022/07/05 01:30:23;;;;;;;7.05;1.77;;;;;;;23.01;54.90;100502.94;2092956;28;20479;-73
2022/07/05 01:31:45;;;;;;;7.20;1.63;;;;;;;22.99;54.98;100508.38;2089465;28;20055;-73
2022/07/05 01:33:09;;;;;;;8.35;1.77;;;;;;;22.99;55.04;100502.97;2099181;28;20060;-73
2022/07/05 01:34:32;;;;;;;7.22;1.67;;;;;;;23.00;55.11;100504.75;2092902;28;20090;-73
2022/07/05 01:35:54;;;;;;;6.13;1.73;;;;;;;22.99;55.17;100505.66;2082748;28;20044;-73
2022/07/05 01:37:17;;;;;;;7.63;1.70;;;;;;;23.01;55.26;100509.19;2090979;28;20051;-73
2022/07/05 01:38:40;;;;;;;6.97;1.77;;;;;;;23.02;55.20;100502.88;2093408;28;20056;-73
2022/07/05 01:40:04;;;;;;;8.75;1.75;;;;;;;23.04;55.22;100502.78;2093699;28;20045;-73
2022/07/05 01:41:25;;;;;;;6.18;2.05;;;;;;;23.01;55.39;100498.41;2093820;28;20083;-73
2022/07/05 01:42:49;;;;;;;7.20;1.65;;;;;;;23.00;55.44;100507.44;2100729;28;20063;-73
2022/07/05 01:44:11;;;;;;;9.23;2.13;;;;;;;23.00;55.48;100502.03;2096036;28;20064;-73
2022/07/05 01:45:43;;;;;;;7.57;1.95;;;;;;;23.01;55.63;100506.50;2093472;28;20565;-73
2022/07/05 01:47:07;;;;;;;6.20;1.50;;;;;;;23.01;55.58;100503.81;2095176;28;20569;-72
2022/07/05 01:48:32;;;;;;;6.40;1.75;;;;;;;23.04;55.47;100498.28;2087900;28;20110;-73
2022/07/05 01:49:58;;;;;;;5.68;1.65;;;;;;;23.07;55.39;100501.81;2089424;28;20048;-73
2022/07/05 01:51:26;;;;;;;10.60;1.65;;;;;;;23.07;55.45;100502.69;2086249;28;20084;-73
2022/07/05 01:52:50;;;;;;;7.13;1.63;;;;;;;23.08;55.41;100495.47;2092147;28;20452;-73
2022/07/05 01:54:13;;;;;;;7.25;1.88;;;;;;;23.10;55.41;100499.88;2093782;28;20142;-73
2022/07/05 01:55:36;;;;;;;13.45;3.58;;;;;;;23.12;55.47;100506.06;2093828;28;20584;-73
2022/07/05 01:56:58;;;;;;;9.85;1.80;;;;;;;23.16;55.38;100504.13;2093512;28;20048;-73
2022/07/05 01:58:21;;;;;;;11.35;1.95;;;;;;;23.18;55.29;100500.41;2090973;28;20045;-73
2022/07/05 01:59:43;;;;;;;3.53;1.70;;;;;;;23.18;55.22;100497.72;2093420;28;20045;-73
2022/07/05 02:01:05;;;;;;;8.57;1.98;;;;;;;23.22;55.07;100501.19;2091057;28;20490;-73
2022/07/05 02:02:28;;;;;;;7.05;1.50;;;;;;;23.31;54.63;100500.78;2090814;28;20058;-73
2022/07/05 02:03:52;;;;;;;5.55;1.40;;;;;;;23.35;54.25;100497.94;2099264;28;20502;-73
2022/07/05 02:05:15;;;;;;;10.23;1.40;;;;;;;23.40;54.16;100497.72;2088216;28;20068;-73
2022/07/05 02:06:39;;;;;;;6.45;1.75;;;;;;;23.38;53.98;100503.19;2092567;28;20068;-73
2022/07/05 02:08:01;;;;;;;4.80;1.65;;;;;;;23.38;54.04;100500.47;2091440;28;20037;-72
2022/07/05 02:09:25;;;;;;;4.45;1.17;;;;;;;23.37;54.12;100505.94;2093483;28;20075;-73
2022/07/05 02:10:49;;;;;;;8.73;1.45;;;;;;;23.37;54.07;100496.03;2091248;28;20383;-73
2022/07/05 02:12:11;;;;;;;8.35;1.40;;;;;;;23.39;53.91;100494.16;2086843;28;20066;-73
2022/07/05 02:13:34;;;;;;;9.52;1.63;;;;;;;23.42;53.89;100501.25;2100916;28;20053;-73
2022/07/05 02:14:57;;;;;;;6.28;1.35;;;;;;;23.40;53.81;100500.44;2089495;28;20072;-73
2022/07/05 02:16:24;;;;;;;7.88;1.38;;;;;;;23.40;53.83;100503.13;2109575;28;20410;-73
2022/07/05 02:17:47;;;;;;;7.30;1.88;;;;;;;23.40;53.62;100497.72;2091129;28;20048;-73
2022/07/05 02:19:10;;;;;;;7.40;1.40;;;;;;;23.39;53.50;100496.84;2086418;28;20123;-73
2022/07/05 02:20:38;;;;;;;6.45;1.33;;;;;;;23.37;53.55;100495.16;2091300;28;20136;-73
2022/07/05 02:22:01;;;;;;;4.88;1.50;;;;;;;23.37;53.50;100503.22;2096482;28;20064;-73
2022/07/05 02:23:22;;;;;;;5.05;1.33;;;;;;;23.34;53.62;100500.69;2100399;28;20140;-73
2022/07/05 02:24:47;;;;;;;4.13;1.40;;;;;;;23.32;53.61;100495.34;2097926;28;20045;-73
2022/07/05 02:26:19;;;;;;;5.00;1.10;;;;;;;23.31;53.50;100503.50;2095316;28;20052;-73
2022/07/05 02:27:41;;;;;;;5.05;1.50;;;;;;;23.30;53.65;100494.53;2092184;28;20049;-73
2022/07/05 02:29:05;;;;;;;11.45;2.03;;;;;;;23.31;53.59;100495.41;2095192;28;20607;-73
2022/07/05 02:30:28;;;;;;;8.18;1.70;;;;;;;23.32;53.63;100497.16;2093288;28;20166;-73
2022/07/05 02:31:51;;;;;;;7.70;2.38;;;;;;;23.31;53.63;100495.41;2088942;28;20522;-73
2022/07/05 02:33:13;;;;;;;8.82;1.60;;;;;;;23.32;53.57;100498.03;2084352;28;20044;-73
2022/07/05 02:34:35;;;;;;;5.40;1.20;;;;;;;23.33;53.34;100497.09;2085662;28;20043;-73
2022/07/05 02:35:58;;;;;;;5.45;1.77;;;;;;;23.36;53.35;100498.81;2084149;28;20099;-73
2022/07/05 02:37:21;;;;;;;10.10;1.52;;;;;;;23.36;53.29;100498.81;2084164;28;20059;-73
2022/07/05 02:38:43;;;;;;;6.07;1.27;;;;;;;23.38;53.34;100496.91;2083992;28;20490;-73
2022/07/05 02:40:10;;;;;;;7.55;1.48;;;;;;;23.41;53.18;100499.50;2086119;28;20429;-73
2022/07/05 02:41:36;;;;;;;8.77;1.38;;;;;;;23.38;53.20;100495.09;2085804;28;20068;-73
2022/07/05 02:42:57;;;;;;;4.80;1.25;;;;;;;23.34;53.28;100501.56;2084202;28;20040;-73
2022/07/05 02:44:21;;;;;;;3.72;0.88;;;;;;;23.31;53.38;100500.78;2084383;28;20076;-73
2022/07/05 02:45:45;;;;;;;4.85;1.15;;;;;;;23.27;53.40;100500.06;2092797;28;20037;-73
2022/07/05 02:47:08;;;;;;;3.92;1.38;;;;;;;23.26;53.56;100509.06;2092421;28;20571;-73
2022/07/05 02:48:30;;;;;;;6.68;1.67;;;;;;;23.23;53.65;100503.84;2091851;28;20178;-73
2022/07/05 02:49:53;;;;;;;6.95;1.58;;;;;;;23.20;53.61;100509.31;2100803;28;20044;-73
2022/07/05 02:51:16;;;;;;;6.38;2.00;;;;;;;23.19;53.64;100504.00;2097367;28;20049;-72
2022/07/05 02:52:39;;;;;;;14.00;2.28;;;;;;;23.14;53.79;100506.00;2084788;28;20147;-72
2022/07/05 02:54:02;;;;;;;7.72;1.30;;;;;;;23.12;53.82;100510.56;2094748;28;20472;-73
2022/07/05 02:55:27;;;;;;;9.23;2.53;;;;;;;23.14;53.82;100506.00;2086530;28;20037;-73
2022/07/05 02:56:51;;;;;;;4.43;1.23;;;;;;;23.11;53.85;100507.00;2086446;28;20048;-73
2022/07/05 02:58:12;;;;;;;4.90;1.40;;;;;;;23.08;53.96;100508.94;2086610;28;20049;-73
2022/07/05 02:59:34;;;;;;;8.90;2.42;;;;;;;23.08;53.96;100508.94;2092095;28;20143;-73
2022/07/05 03:00:58;;;;;;;4.10;1.30;;;;;;;23.11;53.94;100507.00;2086356;28;20525;-73
2022/07/05 03:02:23;;;;;;;3.75;1.58;;;;;;;23.10;53.91;100502.56;2092825;28;20047;-72
2022/07/05 03:03:44;;;;;;;3.47;1.30;;;;;;;23.09;53.95;100510.69;2088992;28;20063;-73
2022/07/05 03:05:09;;;;;;;8.32;1.38;;;;;;;23.07;53.99;100513.44;2083954;28;20045;-73
2022/07/05 03:06:33;;;;;;;8.25;1.50;;;;;;;23.07;53.94;100512.56;2084635;28;20661;-73
2022/07/05 03:07:56;;;;;;;7.13;1.40;;;;;;;23.08;54.02;100509.81;2086500;28;20482;-73
2022/07/05 03:09:20;;;;;;;5.97;1.63;;;;;;;23.10;53.89;100524.13;2092418;28;20089;-72
2022/07/05 03:10:45;;;;;;;9.05;1.40;;;;;;;23.13;54.06;100518.59;2094956;28;20517;-73
2022/07/05 03:12:08;;;;;;;4.68;1.25;;;;;;;23.13;53.96;100518.59;2094116;28;20075;-73
2022/07/05 03:13:33;;;;;;;8.27;1.83;;;;;;;23.14;53.93;100522.16;2090584;28;20045;-73
2022/07/05 03:14:55;;;;;;;5.45;1.38;;;;;;;23.13;53.99;100517.72;2097086;28;20076;-73
2022/07/05 03:16:18;;;;;;;7.40;1.52;;;;;;;23.09;54.01;100518.78;2092035;28;20044;-73
2022/07/05 03:17:40;;;;;;;9.43;1.80;;;;;;;23.07;54.15;100524.22;2088967;28;20106;-73
2022/07/05 03:19:02;;;;;;;4.68;1.48;;;;;;;23.05;54.20;100520.69;2091931;28;20044;-73
2022/07/05 03:20:24;;;;;;;6.93;1.45;;;;;;;23.05;54.24;100520.69;2090284;28;20044;-73
2022/07/05 03:21:47;;;;;;;3.92;1.40;;;;;;;23.04;54.27;100527.91;2094544;28;20439;-73
2022/07/05 03:23:10;;;;;;;20.52;1.98;;;;;;;22.98;54.45;100524.56;2099785;28;20556;-73
2022/07/05 03:24:41;;;;;;;6.75;1.52;;;;;;;22.97;54.58;100523.69;2104133;28;20058;-73
2022/07/05 03:26:06;;;;;;;6.53;1.30;;;;;;;23.01;54.58;100524.47;2108575;28;20414;-72
2022/07/05 03:27:28;;;;;;;5.60;1.52;;;;;;;23.04;54.62;100525.22;2103283;28;20156;-73
2022/07/05 03:28:51;;;;;;;4.85;1.45;;;;;;;23.07;54.66;100521.53;2100262;28;20059;-73
2022/07/05 03:30:14;;;;;;;7.57;1.42;;;;;;;23.12;54.57;100526.72;2086102;28;20111;-73
2022/07/05 03:31:37;;;;;;;7.30;1.50;;;;;;;23.17;54.53;100527.44;2086057;28;20053;-73
2022/07/05 03:33:01;;;;;;;7.53;1.65;;;;;;;23.24;54.41;100532.50;2083538;28;20103;-73
2022/07/05 03:34:25;;;;;;;4.35;1.25;;;;;;;23.34;54.39;100530.31;2086421;28;20067;-73
2022/07/05 03:35:49;;;;;;;7.15;1.25;;;;;;;23.43;54.24;100517.34;2086560;28;20128;-72
2022/07/05 03:37:14;;;;;;;4.82;1.33;;;;;;;23.52;54.02;100523.31;2084258;28;20049;-73
2022/07/05 03:38:36;;;;;;;4.72;1.45;;;;;;;23.61;53.97;100531.03;2086156;28;20048;-73
2022/07/05 03:40:00;;;;;;;4.68;1.50;;;;;;;23.67;53.83;100526.28;2085780;28;20056;-72
2022/07/05 03:41:24;;;;;;;5.10;1.38;;;;;;;23.70;53.93;100533.31;2083583;28;20055;-73
2022/07/05 03:42:46;;;;;;;5.07;1.50;;;;;;;23.76;53.71;100531.25;2086466;28;20049;-73
2022/07/05 03:44:09;;;;;;;7.82;1.52;;;;;;;23.88;53.54;100523.59;2091187;28;20075;-73
2022/07/05 03:45:32;;;;;;;6.90;1.40;;;;;;;23.96;53.32;100533.09;2092672;28;20052;-73
2022/07/05 03:46:54;;;;;;;6.32;1.58;;;;;;;23.97;53.10;100539.38;2082473;28;20144;-73
2022/07/05 03:48:18;;;;;;;10.15;1.67;;;;;;;24.00;53.27;100533.84;2100731;28;20058;-73
2022/07/05 03:49:41;;;;;;;14.18;2.05;;;;;;;24.11;53.23;100536.97;2090416;28;20076;-73
2022/07/05 03:51:04;;;;;;;6.90;1.38;;;;;;;24.21;52.93;100532.97;2088557;28;20045;-73
2022/07/05 03:52:27;;;;;;;4.70;1.33;;;;;;;24.36;52.81;100534.06;2094099;28;20090;-73
2022/07/05 03:53:52;;;;;;;7.80;1.38;;;;;;;24.45;52.69;100541.78;2094992;28;20132;-73
2022/07/05 03:55:15;;;;;;;4.35;1.40;;;;;;;24.55;52.66;100541.28;2083101;28;20052;-73
2022/07/05 03:56:39;;;;;;;4.35;1.70;;;;;;;24.72;52.45;100539.63;2091715;28;20257;-73
2022/07/05 03:58:05;;;;;;;5.35;2.00;;;;;;;24.88;51.87;100532.56;2094724;28;20140;-73
2022/07/05 03:59:28;;;;;;;9.15;1.50;;;;;;;25.04;51.58;100530.94;2085479;28;20045;-72
2022/07/05 04:00:51;;;;;;;5.05;1.80;;;;;;;25.20;51.39;100534.66;2083350;28;20522;-73
2022/07/05 04:02:17;;;;;;;6.07;1.45;;;;;;;25.37;51.20;100537.41;2084394;28;20098;-73
2022/07/05 04:03:38;;;;;;;10.73;1.60;;;;;;;25.54;51.11;100532.97;2091557;28;20044;-73
2022/07/05 04:05:01;;;;;;;8.82;1.30;;;;;;;25.69;51.00;100534.97;2094230;28;20503;-73
2022/07/05 04:06:24;;;;;;;4.85;1.27;;;;;;;25.83;50.50;100531.56;2085770;28;20091;-73
2022/07/05 04:07:48;;;;;;;9.65;1.90;;;;;;;25.97;50.37;100538.00;2098810;28;20044;-72
2022/07/05 04:09:12;;;;;;;6.50;1.10;;;;;;;26.11;50.11;100534.59;2094506;28;20091;-73
2022/07/05 04:10:35;;;;;;;8.80;1.80;;;;;;;26.23;50.26;100533.06;2086062;28;20075;-73
2022/07/05 04:11:59;;;;;;;5.22;1.30;;;;;;;26.38;49.97;100535.88;2089167;28;20508;-73
2022/07/05 04:13:21;;;;;;;5.88;1.58;;;;;;;26.53;49.70;100534.16;2091054;28;20067;-72
2022/07/05 04:14:47;;;;;;;5.47;1.40;;;;;;;26.69;49.60;100535.09;2094302;28;20035;-73
2022/07/05 04:16:09;;;;;;;4.15;1.83;;;;;;;26.86;49.38;100531.44;2096541;28;20139;-73
2022/07/05 04:17:32;;;;;;;6.70;1.63;;;;;;;27.04;49.35;100532.31;2096742;28;20044;-73
2022/07/05 04:18:54;;;;;;;4.88;1.55;;;;;;;27.22;49.20;100539.41;2105214;28;20425;-73
2022/07/05 04:20:18;;;;;;;7.43;1.35;;;;;;;27.38;48.81;100543.84;2088293;28;20075;-72
2022/07/05 04:21:41;;;;;;;5.20;1.38;;;;;;;27.54;48.16;100545.72;2084915;28;20668;-73
2022/07/05 04:23:04;;;;;;;3.58;1.25;;;;;;;27.69;47.71;100536.69;2090253;28;20045;-73
2022/07/05 04:24:27;;;;;;;7.78;1.35;;;;;;;27.86;47.02;100547.41;2099980;28;20055;-73
2022/07/05 04:25:48;;;;;;;6.22;1.25;;;;;;;28.02;46.59;100541.94;2094155;28;20044;-73
2022/07/05 04:27:24;;;;;;;5.80;1.40;;;;;;;28.18;46.38;100547.34;2094808;28;20049;-73
2022/07/05 04:28:47;;;;;;;4.72;1.10;;;;;;;28.37;46.16;100548.84;2102248;28;20040;-73
2022/07/05 04:30:17;;;;;;;5.60;1.55;;;;;;;28.60;45.86;100554.69;2096705;28;20105;-73
2022/07/05 04:31:39;;;;;;;7.78;1.38;;;;;;;28.79;45.81;100550.75;2091701;28;20048;-72
2022/07/05 04:33:01;;;;;;;3.63;0.98;;;;;;;28.99;45.23;100541.34;2093390;28;20052;-73
2022/07/05 04:34:24;;;;;;;3.08;1.20;;;;;;;29.20;44.40;100552.69;2091316;28;20041;-73
2022/07/05 04:35:45;;;;;;;8.77;1.42;;;;;;;29.44;44.09;100553.81;2093221;28;20056;-73
2022/07/05 04:37:08;;;;;;;2.70;1.25;;;;;;;29.67;43.69;100558.59;2097840;28;20043;-73
2022/07/05 04:38:30;;;;;;;5.13;1.42;;;;;;;29.91;43.10;100553.34;2095968;28;20044;-73
2022/07/05 04:39:53;;;;;;;5.38;1.30;;;;;;;30.09;42.47;100543.94;2095063;28;20472;-73
2022/07/05 04:41:16;;;;;;;3.90;1.30;;;;;;;30.21;42.40;100547.66;2086599;28;20097;-73
2022/07/05 04:42:40;;;;;;;5.93;1.30;;;;;;;30.40;42.19;100541.81;2110132;28;20040;-73
2022/07/05 04:44:05;;;;;;;6.78;1.38;;;;;;;30.58;41.84;100548.75;2100482;28;20056;-73
2022/07/05 04:45:27;;;;;;;7.88;2.20;;;;;;;30.78;41.13;100550.91;2101797;28;20420;-73
2022/07/05 04:46:50;;;;;;;6.20;1.50;;;;;;;31.03;41.04;100554.59;2096591;28;20497;-73
2022/07/05 04:48:12;;;;;;;6.22;1.20;;;;;;;31.25;40.52;100555.66;2090820;28;20052;-73
2022/07/05 04:49:36;;;;;;;3.90;1.15;;;;;;;31.48;39.72;100553.97;2091410;28;20192;-73
2022/07/05 04:50:58;;;;;;;5.13;1.75;;;;;;;31.61;39.16;100553.94;2103761;28;20052;-73
2022/07/05 04:52:21;;;;;;;4.47;1.20;;;;;;;31.66;38.98;100559.91;2099623;28;20093;-73
2022/07/05 04:53:43;;;;;;;6.03;1.10;;;;;;;31.81;38.88;100563.34;2104386;28;20116;-73
2022/07/05 04:55:06;;;;;;;8.65;1.40;;;;;;;32.05;38.35;100558.72;2100000;28;20056;-73
2022/07/05 04:56:28;;;;;;;6.18;1.40;;;;;;;32.20;37.87;100568.53;2104731;28;20040;-73
2022/07/05 04:57:51;;;;;;;4.68;1.30;;;;;;;32.36;37.20;100563.59;2093661;28;20036;-73
2022/07/05 04:59:13;;;;;;;8.43;2.08;;;;;;;32.57;36.71;100563.75;2096569;28;20052;-73
2022/07/05 05:00:35;;;;;;;4.13;1.10;;;;;;;32.77;36.05;100559.47;2107870;28;20040;-73
2022/07/05 05:01:57;;;;;;;5.40;1.30;;;;;;;32.87;35.81;100563.22;2104091;28;20115;-73
2022/07/05 05:03:20;;;;;;;7.32;1.33;;;;;;;33.04;35.20;100570.94;2102290;28;20580;-73
2022/07/05 05:04:43;;;;;;;5.80;1.23;;;;;;;33.17;34.97;100573.53;2102096;28;20075;-73
2022/07/05 05:06:05;;;;;;;6.57;1.40;;;;;;;33.27;34.21;100562.75;2107256;28;20580;-73
2022/07/05 05:07:27;;;;;;;4.25;1.10;;;;;;;33.29;34.30;100560.72;2106408;28;20142;-73
2022/07/05 05:08:49;;;;;;;;;;;;;;;33.40;33.60;100566.22;2102487;28;20047;-73
2022/07/05 05:10:12;;;;;;;5.18;1.20;;;;;;;33.56;33.88;100572.16;2102321;28;20010;-73
2022/07/05 05:11:35;;;;;;;6.63;1.40;;;;;;;33.68;33.45;100571.13;2113390;27;20047;-73
2022/07/05 05:12:59;;;;;;;7.93;1.20;;;;;;;33.83;33.10;100563.50;2104505;28;20142;-73
2022/07/05 05:14:20;;;;;;;5.97;1.27;;;;;;;33.97;32.92;100569.56;2107038;28;20075;-73
2022/07/05 05:15:43;;;;;;;7.75;1.08;;;;;;;34.14;32.76;100570.84;2095403;28;20048;-74
2022/07/05 05:17:04;;;;;;;5.20;1.83;;;;;;;34.35;32.47;100576.38;2112548;28;20047;-73
2022/07/05 05:18:28;;;;;;;5.90;1.40;;;;;;;34.53;32.47;100576.69;2107436;28;20044;-73
2022/07/05 05:19:51;;;;;;;8.02;1.55;;;;;;;34.79;32.07;100586.22;2102279;28;20101;-73
2022/07/05 05:21:14;;;;;;;7.00;1.23;;;;;;;34.95;31.82;100593.97;2109129;28;20074;-72
2022/07/05 05:22:35;;;;;;;7.97;1.40;;;;;;;35.01;32.07;100588.81;2101764;28;20058;-73
2022/07/05 05:23:58;;;;;;;7.60;1.33;;;;;;;35.11;32.11;100594.38;2096961;28;20032;-73
2022/07/05 05:25:20;;;;;;;6.93;1.63;;;;;;;35.17;32.21;100596.56;2101935;28;20044;-73
2022/07/05 05:26:43;;;;;;;6.57;1.55;;;;;;;35.17;32.50;100593.81;2101703;28;20104;-73
2022/07/05 05:28:07;;;;;;;8.77;1.92;;;;;;;35.13;32.59;100592.34;2101753;28;20102;-72
2022/07/05 05:29:28;;;;;;;10.77;1.73;;;;;;;35.11;32.63;100597.97;2118971;28;20081;-73
2022/07/05 05:30:51;;;;;;;10.20;1.67;;;;;;;35.17;32.67;100600.19;2107412;28;20048;-72
2022/07/05 05:32:12;;;;;;;10.05;1.70;;;;;;;35.33;33.01;100593.31;2103997;28;20086;-72
2022/07/05 05:33:34;;;;;;;6.20;1.70;;;;;;;35.35;32.90;100594.06;2102054;28;20044;-73
2022/07/05 05:34:56;;;;;;;9.75;2.78;;;;;;;35.37;33.41;100595.66;2106949;28;20509;-73
2022/07/05 05:36:18;;;;;;;6.25;1.83;;;;;;;35.42;33.48;100600.72;2104650;28;20505;-73
2022/07/05 05:37:47;;;;;;;8.52;1.83;;;;;;;35.46;33.27;100603.03;2109391;28;20092;-73
2022/07/05 05:39:09;;;;;;;10.93;1.90;;;;;;;35.46;33.12;100594.81;2111469;28;20058;-73
2022/07/05 05:40:32;;;;;;;6.68;1.60;;;;;;;35.37;33.37;100605.78;2108507;28;20059;-73
2022/07/05 05:41:55;;;;;;;6.57;1.77;;;;;;;35.38;33.03;100602.03;2109418;28;20050;-74
2022/07/05 05:43:19;;;;;;;8.70;1.88;;;;;;;35.45;32.91;100606.78;2110480;28;20093;-74
2022/07/05 05:44:40;;;;;;;9.73;1.75;;;;;;;35.58;33.12;100601.91;2110266;28;20051;-73
2022/07/05 05:46:04;;;;;;;7.35;1.65;;;;;;;35.70;32.28;100597.22;2109015;28;20146;-73
2022/07/05 05:47:27;;;;;;;5.75;1.30;;;;;;;35.63;32.06;100600.66;2104905;28;20142;-73
2022/07/05 05:48:49;;;;;;;6.90;1.40;;;;;;;35.74;31.75;100606.91;2108392;28;20528;-73
2022/07/05 05:50:11;;;;;;;5.88;1.52;;;;;;;35.87;31.10;100603.91;2096812;28;20099;-74
2022/07/05 05:51:33;;;;;;;12.15;1.98;;;;;;;35.94;31.40;100610.56;2094604;28;20048;-74
2022/07/05 05:52:56;;;;;;;6.03;2.10;;;;;;;36.02;31.37;100607.97;2104422;28;20535;-74
2022/07/05 05:54:17;;;;;;;6.82;1.50;;;;;;;36.09;31.20;100606.41;2112230;28;20547;-73
2022/07/05 05:55:40;;;;;;;4.93;1.42;;;;;;;36.19;31.62;100604.53;2112136;28;20048;-74
2022/07/05 05:57:02;;;;;;;13.75;2.03;;;;;;;36.22;31.37;100608.91;2112115;28;20445;-74
2022/07/05 05:58:26;;;;;;;7.45;1.75;;;;;;;36.12;31.86;100611.59;2111577;28;20043;-74
2022/07/05 05:59:48;;;;;;;9.25;1.50;;;;;;;36.12;31.92;100610.72;2112509;28;20047;-74
2022/07/05 06:01:10;;;;;;;4.53;1.55;;;;;;;36.15;32.23;100605.81;2105252;28;20548;-74
2022/07/05 06:02:32;;;;;;;9.63;3.10;;;;;;;36.20;32.15;100611.78;2103705;28;20044;-74
2022/07/05 06:03:54;;;;;;;;;;;;;;;36.05;32.12;100602.19;2112595;28;20047;-74
2022/07/05 06:05:17;;;;;;;7.97;2.10;;;;;;;35.94;32.60;100608.69;2105499;28;19927;-73
2022/07/05 06:06:40;;;;;;;8.90;1.77;;;;;;;35.78;32.73;100602.00;2111566;28;20413;-73
2022/07/05 06:08:02;;;;;;;12.93;2.25;;;;;;;35.77;32.88;100594.78;2105797;28;20068;-74
2022/07/05 06:09:25;;;;;;;8.10;1.75;;;;;;;35.75;33.12;100611.41;2097596;28;20048;-74
2022/07/05 06:10:47;;;;;;;8.32;1.67;;;;;;;35.87;32.94;100603.91;2108499;28;20104;-73
2022/07/05 06:12:09;;;;;;;9.82;1.75;;;;;;;36.07;33.15;100597.41;2105948;28;20566;-73
2022/07/05 06:13:32;;;;;;;;;;;;;;;36.05;32.55;100593.06;2103719;28;20048;-74
2022/07/05 06:14:54;;;;;;;9.57;1.30;;;;;;;35.99;33.10;100589.00;2103503;28;19947;-74
2022/07/05 06:16:16;;;;;;;6.88;1.80;;;;;;;35.94;32.92;100588.56;2095108;28;20048;-73
2022/07/05 06:17:39;;;;;;;9.02;1.70;;;;;;;35.89;32.67;100589.03;2103864;28;20043;-74
2022/07/05 06:19:02;;;;;;;9.85;1.77;;;;;;;35.82;33.08;100603.47;2103322;28;20071;-73
2022/07/05 06:20:26;;;;;;;10.00;1.98;;;;;;;36.00;32.84;100593.50;2102922;28;20079;-74
2022/07/05 06:21:49;;;;;;;6.30;1.77;;;;;;;36.18;32.69;100594.53;2103723;28;20078;-74
2022/07/05 06:23:11;;;;;;;9.30;1.83;;;;;;;36.41;32.71;100589.63;2102613;28;20055;-74
2022/07/05 06:24:33;;;;;;;7.38;1.85;;;;;;;36.60;32.26;100595.09;2102213;28;20135;-73
2022/07/05 06:25:55;;;;;;;11.63;2.08;;;;;;;36.60;31.93;100592.34;2103319;28;20668;-74